sensor_id;sensor_type;location;lat;lon;timestamp;P1;durP1;ratioP1;P2;durP2;ratioP2
32242;SDS011;18731;42.830;24.390;2024-03-29T00:02:22;4.57;;;1.40;;
32242;SDS011;18731;42.830;24.390;2024-03-29T00:04:48;7.68;;;1.10;;
32242;SDS011;18731;42.830;24.390;2024-03-29T00:07:13;7.07;;;1.48;;
32242;SDS011;18731;42.830;24.390;2024-03-29T00:09:39;7.75;;;1.60;;
32242;SDS011;18731;42.830;24.390;2024-03-29T00:12:04;4.45;;;1.00;;
32242;SDS011;18731;42.830;24.390;2024-03-29T00:14:31;7.65;;;1.45;;
32242;SDS011;18731;42.830;24.390;2024-03-29T00:16:57;8.18;;;1.30;;
32242;SDS011;18731;42.830;24.390;2024-03-29T00:19:22;12.80;;;1.75;;
32242;SDS011;18731;42.830;24.390;2024-03-29T00:21:48;8.25;;;1.45;;
32242;SDS011;18731;42.830;24.390;2024-03-29T00:24:13;8.25;;;1.00;;
32242;SDS011;18731;42.830;24.390;2024-03-29T00:26:38;7.05;;;1.30;;
32242;SDS011;18731;42.830;24.390;2024-03-29T00:29:04;10.73;;;1.38;;
32242;SDS011;18731;42.830;24.390;2024-03-29T00:31:29;4.07;;;1.40;;
32242;SDS011;18731;42.830;24.390;2024-03-29T00:33:55;6.88;;;1.27;;
32242;SDS011;18731;42.830;24.390;2024-03-29T00:36:20;6.03;;;1.25;;
32242;SDS011;18731;42.830;24.390;2024-03-29T00:38:46;5.82;;;1.15;;
32242;SDS011;18731;42.830;24.390;2024-03-29T00:41:11;6.40;;;1.05;;
32242;SDS011;18731;42.830;24.390;2024-03-29T00:43:37;6.32;;;1.10;;
32242;SDS011;18731;42.830;24.390;2024-03-29T00:46:02;7.15;;;1.30;;
32242;SDS011;18731;42.830;24.390;2024-03-29T00:48:28;4.38;;;1.30;;
32242;SDS011;18731;42.830;24.390;2024-03-29T00:50:54;8.38;;;1.20;;
32242;SDS011;18731;42.830;24.390;2024-03-29T00:53:20;3.63;;;0.98;;
32242;SDS011;18731;42.830;24.390;2024-03-29T00:55:45;5.15;;;0.98;;
32242;SDS011;18731;42.830;24.390;2024-03-29T00:58:11;7.05;;;0.90;;
32242;SDS011;18731;42.830;24.390;2024-03-29T01:00:36;6.68;;;1.05;;
32242;SDS011;18731;42.830;24.390;2024-03-29T01:03:02;4.03;;;1.23;;
32242;SDS011;18731;42.830;24.390;2024-03-29T01:05:27;4.22;;;1.20;;
32242;SDS011;18731;42.830;24.390;2024-03-29T01:07:53;7.10;;;1.25;;
32242;SDS011;18731;42.830;24.390;2024-03-29T01:10:18;5.97;;;1.05;;
32242;SDS011;18731;42.830;24.390;2024-03-29T01:12:44;10.77;;;2.13;;
32242;SDS011;18731;42.830;24.390;2024-03-29T01:15:11;4.43;;;0.98;;
32242;SDS011;18731;42.830;24.390;2024-03-29T01:17:37;9.18;;;1.25;;
32242;SDS011;18731;42.830;24.390;2024-03-29T01:20:02;5.78;;;1.60;;
32242;SDS011;18731;42.830;24.390;2024-03-29T01:22:28;5.00;;;1.10;;
32242;SDS011;18731;42.830;24.390;2024-03-29T01:24:53;6.40;;;1.27;;
32242;SDS011;18731;42.830;24.390;2024-03-29T01:27:20;6.90;;;1.67;;
32242;SDS011;18731;42.830;24.390;2024-03-29T01:29:46;6.82;;;1.52;;
32242;SDS011;18731;42.830;24.390;2024-03-29T01:32:11;5.30;;;1.27;;
32242;SDS011;18731;42.830;24.390;2024-03-29T01:34:37;6.20;;;1.52;;
32242;SDS011;18731;42.830;24.390;2024-03-29T01:37:02;5.15;;;1.60;;
32242;SDS011;18731;42.830;24.390;2024-03-29T01:39:28;4.38;;;1.30;;
32242;SDS011;18731;42.830;24.390;2024-03-29T01:41:56;7.45;;;2.00;;
32242;SDS011;18731;42.830;24.390;2024-03-29T01:44:22;7.07;;;1.70;;
32242;SDS011;18731;42.830;24.390;2024-03-29T01:46:47;7.43;;;1.75;;
32242;SDS011;18731;42.830;24.390;2024-03-29T01:49:13;7.18;;;1.50;;
32242;SDS011;18731;42.830;24.390;2024-03-29T01:51:39;4.72;;;1.40;;
32242;SDS011;18731;42.830;24.390;2024-03-29T01:54:05;8.20;;;1.38;;
32242;SDS011;18731;42.830;24.390;2024-03-29T01:56:34;7.53;;;1.33;;
32242;SDS011;18731;42.830;24.390;2024-03-29T01:59:00;5.32;;;1.60;;
32242;SDS011;18731;42.830;24.390;2024-03-29T02:01:29;3.17;;;1.27;;
32242;SDS011;18731;42.830;24.390;2024-03-29T02:03:55;7.07;;;1.50;;
32242;SDS011;18731;42.830;24.390;2024-03-29T02:06:21;4.15;;;1.17;;
32242;SDS011;18731;42.830;24.390;2024-03-29T02:08:51;5.28;;;1.10;;
32242;SDS011;18731;42.830;24.390;2024-03-29T02:11:21;3.85;;;1.17;;
32242;SDS011;18731;42.830;24.390;2024-03-29T02:13:46;8.43;;;1.25;;
32242;SDS011;18731;42.830;24.390;2024-03-29T02:16:13;12.70;;;1.23;;
32242;SDS011;18731;42.830;24.390;2024-03-29T02:18:38;7.88;;;1.40;;
32242;SDS011;18731;42.830;24.390;2024-03-29T02:21:04;5.15;;;1.13;;
32242;SDS011;18731;42.830;24.390;2024-03-29T02:23:30;8.95;;;0.90;;
32242;SDS011;18731;42.830;24.390;2024-03-29T02:25:57;6.28;;;0.70;;
32242;SDS011;18731;42.830;24.390;2024-03-29T02:28:24;3.35;;;1.00;;
32242;SDS011;18731;42.830;24.390;2024-03-29T02:30:50;4.53;;;1.13;;
32242;SDS011;18731;42.830;24.390;2024-03-29T02:33:16;4.32;;;1.08;;
32242;SDS011;18731;42.830;24.390;2024-03-29T02:35:42;2.88;;;1.10;;
32242;SDS011;18731;42.830;24.390;2024-03-29T02:38:07;2.10;;;0.80;;
32242;SDS011;18731;42.830;24.390;2024-03-29T02:40:33;4.28;;;1.33;;
32242;SDS011;18731;42.830;24.390;2024-03-29T02:42:58;7.55;;;1.50;;
32242;SDS011;18731;42.830;24.390;2024-03-29T02:45:24;7.10;;;1.00;;
32242;SDS011;18731;42.830;24.390;2024-03-29T02:47:49;3.78;;;1.10;;
32242;SDS011;18731;42.830;24.390;2024-03-29T02:50:15;2.97;;;0.90;;
32242;SDS011;18731;42.830;24.390;2024-03-29T02:52:41;9.52;;;1.30;;
32242;SDS011;18731;42.830;24.390;2024-03-29T02:55:08;3.03;;;1.20;;
32242;SDS011;18731;42.830;24.390;2024-03-29T02:57:35;5.90;;;1.00;;
32242;SDS011;18731;42.830;24.390;2024-03-29T03:00:01;2.80;;;1.20;;
32242;SDS011;18731;42.830;24.390;2024-03-29T03:02:28;3.55;;;1.33;;
32242;SDS011;18731;42.830;24.390;2024-03-29T03:04:54;2.85;;;1.20;;
32242;SDS011;18731;42.830;24.390;2024-03-29T03:07:19;6.15;;;1.20;;
32242;SDS011;18731;42.830;24.390;2024-03-29T03:10:03;4.72;;;0.93;;
32242;SDS011;18731;42.830;24.390;2024-03-29T03:12:48;4.82;;;0.80;;
32242;SDS011;18731;42.830;24.390;2024-03-29T03:15:13;7.47;;;1.40;;
32242;SDS011;18731;42.830;24.390;2024-03-29T03:17:39;7.40;;;0.90;;
32242;SDS011;18731;42.830;24.390;2024-03-29T03:20:04;8.35;;;1.20;;
32242;SDS011;18731;42.830;24.390;2024-03-29T03:22:31;5.50;;;1.52;;
32242;SDS011;18731;42.830;24.390;2024-03-29T03:24:57;3.05;;;0.77;;
32242;SDS011;18731;42.830;24.390;2024-03-29T03:27:23;4.90;;;1.08;;
32242;SDS011;18731;42.830;24.390;2024-03-29T03:29:48;1.80;;;0.75;;
32242;SDS011;18731;42.830;24.390;2024-03-29T03:32:14;3.30;;;0.75;;
32242;SDS011;18731;42.830;24.390;2024-03-29T03:34:39;6.93;;;0.80;;
32242;SDS011;18731;42.830;24.390;2024-03-29T03:37:05;2.85;;;0.90;;
32242;SDS011;18731;42.830;24.390;2024-03-29T03:39:31;2.42;;;1.05;;
32242;SDS011;18731;42.830;24.390;2024-03-29T03:41:56;1.42;;;0.70;;
32242;SDS011;18731;42.830;24.390;2024-03-29T03:44:22;2.28;;;0.90;;
32242;SDS011;18731;42.830;24.390;2024-03-29T03:46:49;3.70;;;1.70;;
32242;SDS011;18731;42.830;24.390;2024-03-29T03:49:16;6.50;;;1.70;;
32242;SDS011;18731;42.830;24.390;2024-03-29T03:51:41;3.63;;;1.50;;
32242;SDS011;18731;42.830;24.390;2024-03-29T03:54:07;7.30;;;1.70;;
32242;SDS011;18731;42.830;24.390;2024-03-29T03:56:32;5.78;;;1.80;;
32242;SDS011;18731;42.830;24.390;2024-03-29T03:58:58;13.15;;;2.38;;
32242;SDS011;18731;42.830;24.390;2024-03-29T04:01:23;8.73;;;2.25;;
32242;SDS011;18731;42.830;24.390;2024-03-29T04:03:49;4.63;;;2.50;;
32242;SDS011;18731;42.830;24.390;2024-03-29T04:06:15;8.70;;;3.55;;
32242;SDS011;18731;42.830;24.390;2024-03-29T04:08:40;8.57;;;3.45;;
32242;SDS011;18731;42.830;24.390;2024-03-29T04:11:06;5.60;;;2.90;;
32242;SDS011;18731;42.830;24.390;2024-03-29T04:13:31;6.43;;;2.30;;
32242;SDS011;18731;42.830;24.390;2024-03-29T04:16:03;8.30;;;3.17;;
32242;SDS011;18731;42.830;24.390;2024-03-29T04:18:29;6.53;;;2.65;;
32242;SDS011;18731;42.830;24.390;2024-03-29T04:20:58;8.02;;;2.28;;
32242;SDS011;18731;42.830;24.390;2024-03-29T04:23:24;4.13;;;1.55;;
32242;SDS011;18731;42.830;24.390;2024-03-29T04:25:53;4.30;;;1.50;;
32242;SDS011;18731;42.830;24.390;2024-03-29T04:28:19;11.95;;;2.60;;
32242;SDS011;18731;42.830;24.390;2024-03-29T04:30:51;11.35;;;2.35;;
32242;SDS011;18731;42.830;24.390;2024-03-29T04:33:21;3.47;;;2.00;;
32242;SDS011;18731;42.830;24.390;2024-03-29T04:36:20;7.18;;;3.13;;
32242;SDS011;18731;42.830;24.390;2024-03-29T04:38:39;12.35;;;4.18;;
32242;SDS011;18731;42.830;24.390;2024-03-29T04:41:04;14.88;;;6.05;;
32242;SDS011;18731;42.830;24.390;2024-03-29T04:43:30;16.88;;;6.32;;
32242;SDS011;18731;42.830;24.390;2024-03-29T04:46:04;11.30;;;4.13;;
32242;SDS011;18731;42.830;24.390;2024-03-29T04:48:36;13.65;;;3.95;;
32242;SDS011;18731;42.830;24.390;2024-03-29T04:51:02;9.25;;;3.70;;
32242;SDS011;18731;42.830;24.390;2024-03-29T04:53:28;9.30;;;4.10;;
32242;SDS011;18731;42.830;24.390;2024-03-29T04:55:54;11.80;;;4.13;;
32242;SDS011;18731;42.830;24.390;2024-03-29T04:58:21;10.10;;;3.63;;
32242;SDS011;18731;42.830;24.390;2024-03-29T05:00:48;8.65;;;3.70;;
32242;SDS011;18731;42.830;24.390;2024-03-29T05:03:14;10.43;;;2.63;;
32242;SDS011;18731;42.830;24.390;2024-03-29T05:05:40;4.20;;;2.55;;
32242;SDS011;18731;42.830;24.390;2024-03-29T05:08:06;8.80;;;3.03;;
32242;SDS011;18731;42.830;24.390;2024-03-29T05:10:31;8.27;;;3.20;;
32242;SDS011;18731;42.830;24.390;2024-03-29T05:12:57;7.32;;;4.28;;
32242;SDS011;18731;42.830;24.390;2024-03-29T05:15:22;11.88;;;4.90;;
32242;SDS011;18731;42.830;24.390;2024-03-29T05:17:48;18.77;;;12.10;;
32242;SDS011;18731;42.830;24.390;2024-03-29T05:20:13;20.95;;;10.82;;
32242;SDS011;18731;42.830;24.390;2024-03-29T05:22:39;7.75;;;3.72;;
32242;SDS011;18731;42.830;24.390;2024-03-29T05:25:04;17.40;;;7.85;;
32242;SDS011;18731;42.830;24.390;2024-03-29T05:27:32;11.60;;;7.43;;
32242;SDS011;18731;42.830;24.390;2024-03-29T05:29:58;6.53;;;2.60;;
32242;SDS011;18731;42.830;24.390;2024-03-29T05:32:24;13.38;;;6.45;;
32242;SDS011;18731;42.830;24.390;2024-03-29T05:34:50;4.65;;;2.80;;
32242;SDS011;18731;42.830;24.390;2024-03-29T05:37:15;9.05;;;1.60;;
32242;SDS011;18731;42.830;24.390;2024-03-29T05:39:43;9.10;;;2.10;;
32242;SDS011;18731;42.830;24.390;2024-03-29T05:42:08;5.07;;;1.50;;
32242;SDS011;18731;42.830;24.390;2024-03-29T05:44:37;5.10;;;1.20;;
32242;SDS011;18731;42.830;24.390;2024-03-29T05:47:02;4.68;;;0.90;;
32242;SDS011;18731;42.830;24.390;2024-03-29T05:49:30;5.78;;;0.98;;
32242;SDS011;18731;42.830;24.390;2024-03-29T05:51:56;2.20;;;0.70;;
32242;SDS011;18731;42.830;24.390;2024-03-29T05:54:21;4.75;;;1.10;;
32242;SDS011;18731;42.830;24.390;2024-03-29T05:56:48;5.78;;;0.90;;
32242;SDS011;18731;42.830;24.390;2024-03-29T05:59:13;11.00;;;1.50;;
32242;SDS011;18731;42.830;24.390;2024-03-29T06:01:39;3.70;;;1.42;;
32242;SDS011;18731;42.830;24.390;2024-03-29T06:04:04;8.38;;;3.70;;
32242;SDS011;18731;42.830;24.390;2024-03-29T06:06:38;7.30;;;1.92;;
32242;SDS011;18731;42.830;24.390;2024-03-29T06:09:04;6.80;;;2.05;;
32242;SDS011;18731;42.830;24.390;2024-03-29T06:11:30;17.02;;;6.93;;
32242;SDS011;18731;42.830;24.390;2024-03-29T06:13:56;4.95;;;2.30;;
32242;SDS011;18731;42.830;24.390;2024-03-29T06:16:25;5.40;;;4.57;;
32242;SDS011;18731;42.830;24.390;2024-03-29T06:19:09;14.80;;;9.95;;
32242;SDS011;18731;42.830;24.390;2024-03-29T06:21:35;11.73;;;6.25;;
32242;SDS011;18731;42.830;24.390;2024-03-29T06:24:08;17.42;;;11.90;;
32242;SDS011;18731;42.830;24.390;2024-03-29T06:26:37;12.18;;;6.90;;
32242;SDS011;18731;42.830;24.390;2024-03-29T06:29:03;24.48;;;9.88;;
32242;SDS011;18731;42.830;24.390;2024-03-29T06:31:29;13.60;;;2.50;;
32242;SDS011;18731;42.830;24.390;2024-03-29T06:33:55;8.77;;;3.40;;
32242;SDS011;18731;42.830;24.390;2024-03-29T06:36:21;4.05;;;2.28;;
32242;SDS011;18731;42.830;24.390;2024-03-29T06:38:47;4.93;;;1.25;;
32242;SDS011;18731;42.830;24.390;2024-03-29T06:41:14;1.88;;;0.68;;
32242;SDS011;18731;42.830;24.390;2024-03-29T06:43:40;2.53;;;0.73;;
32242;SDS011;18731;42.830;24.390;2024-03-29T06:46:08;2.63;;;0.80;;
32242;SDS011;18731;42.830;24.390;2024-03-29T06:48:34;1.73;;;0.60;;
32242;SDS011;18731;42.830;24.390;2024-03-29T06:50:59;22.38;;;1.33;;
32242;SDS011;18731;42.830;24.390;2024-03-29T06:53:25;7.22;;;0.90;;
32242;SDS011;18731;42.830;24.390;2024-03-29T06:55:51;1.83;;;0.90;;
32242;SDS011;18731;42.830;24.390;2024-03-29T06:58:16;4.57;;;1.35;;
32242;SDS011;18731;42.830;24.390;2024-03-29T07:00:43;8.88;;;1.20;;
32242;SDS011;18731;42.830;24.390;2024-03-29T07:03:12;3.90;;;0.88;;
32242;SDS011;18731;42.830;24.390;2024-03-29T07:05:38;5.00;;;0.80;;
32242;SDS011;18731;42.830;24.390;2024-03-29T07:08:04;7.60;;;1.17;;
32242;SDS011;18731;42.830;24.390;2024-03-29T07:10:29;3.88;;;1.10;;
32242;SDS011;18731;42.830;24.390;2024-03-29T07:12:56;2.88;;;1.10;;
32242;SDS011;18731;42.830;24.390;2024-03-29T07:15:21;3.55;;;1.20;;
32242;SDS011;18731;42.830;24.390;2024-03-29T07:17:47;5.75;;;1.40;;
32242;SDS011;18731;42.830;24.390;2024-03-29T07:20:15;4.43;;;1.20;;
32242;SDS011;18731;42.830;24.390;2024-03-29T07:22:40;3.50;;;1.35;;
32242;SDS011;18731;42.830;24.390;2024-03-29T07:25:06;1.98;;;1.00;;
32242;SDS011;18731;42.830;24.390;2024-03-29T07:27:32;4.70;;;1.55;;
32242;SDS011;18731;42.830;24.390;2024-03-29T07:30:00;4.85;;;1.40;;
32242;SDS011;18731;42.830;24.390;2024-03-29T07:32:33;4.57;;;1.67;;
32242;SDS011;18731;42.830;24.390;2024-03-29T07:34:59;3.65;;;1.50;;
32242;SDS011;18731;42.830;24.390;2024-03-29T07:37:25;2.83;;;1.33;;
32242;SDS011;18731;42.830;24.390;2024-03-29T07:39:51;5.05;;;1.15;;
32242;SDS011;18731;42.830;24.390;2024-03-29T07:42:16;4.10;;;1.00;;
32242;SDS011;18731;42.830;24.390;2024-03-29T07:44:42;3.00;;;1.00;;
32242;SDS011;18731;42.830;24.390;2024-03-29T07:47:08;8.90;;;1.35;;
32242;SDS011;18731;42.830;24.390;2024-03-29T07:49:33;8.85;;;1.38;;
32242;SDS011;18731;42.830;24.390;2024-03-29T07:51:59;3.60;;;0.90;;
32242;SDS011;18731;42.830;24.390;2024-03-29T07:54:27;4.13;;;1.00;;
32242;SDS011;18731;42.830;24.390;2024-03-29T07:56:53;3.58;;;0.98;;
32242;SDS011;18731;42.830;24.390;2024-03-29T07:59:18;3.75;;;1.08;;
32242;SDS011;18731;42.830;24.390;2024-03-29T08:01:45;4.00;;;0.98;;
32242;SDS011;18731;42.830;24.390;2024-03-29T08:04:10;3.45;;;0.93;;
32242;SDS011;18731;42.830;24.390;2024-03-29T08:06:36;6.30;;;1.23;;
32242;SDS011;18731;42.830;24.390;2024-03-29T08:09:01;3.90;;;1.00;;
32242;SDS011;18731;42.830;24.390;2024-03-29T08:11:27;6.10;;;1.30;;
32242;SDS011;18731;42.830;24.390;2024-03-29T08:13:53;5.32;;;1.05;;
32242;SDS011;18731;42.830;24.390;2024-03-29T08:16:18;9.05;;;1.15;;
32242;SDS011;18731;42.830;24.390;2024-03-29T08:18:45;3.20;;;1.05;;
32242;SDS011;18731;42.830;24.390;2024-03-29T08:21:12;4.57;;;1.00;;
32242;SDS011;18731;42.830;24.390;2024-03-29T08:23:38;4.53;;;1.27;;
32242;SDS011;18731;42.830;24.390;2024-03-29T08:26:10;5.75;;;1.40;;
32242;SDS011;18731;42.830;24.390;2024-03-29T08:28:35;12.20;;;1.40;;
32242;SDS011;18731;42.830;24.390;2024-03-29T08:31:04;5.45;;;1.30;;
32242;SDS011;18731;42.830;24.390;2024-03-29T08:33:31;4.20;;;1.02;;
32242;SDS011;18731;42.830;24.390;2024-03-29T08:35:57;5.32;;;1.30;;
32242;SDS011;18731;42.830;24.390;2024-03-29T08:38:23;3.85;;;1.30;;
32242;SDS011;18731;42.830;24.390;2024-03-29T08:40:49;5.63;;;1.00;;
32242;SDS011;18731;42.830;24.390;2024-03-29T08:43:15;5.65;;;1.05;;
32242;SDS011;18731;42.830;24.390;2024-03-29T08:45:43;6.70;;;1.20;;
32242;SDS011;18731;42.830;24.390;2024-03-29T08:48:09;4.68;;;1.20;;
32242;SDS011;18731;42.830;24.390;2024-03-29T08:50:35;4.55;;;1.05;;
32242;SDS011;18731;42.830;24.390;2024-03-29T08:53:02;7.55;;;1.30;;
32242;SDS011;18731;42.830;24.390;2024-03-29T08:55:29;3.92;;;0.98;;
32242;SDS011;18731;42.830;24.390;2024-03-29T08:57:57;1.58;;;0.93;;
32242;SDS011;18731;42.830;24.390;2024-03-29T09:00:24;3.78;;;0.95;;
32242;SDS011;18731;42.830;24.390;2024-03-29T09:02:53;6.13;;;1.25;;
32242;SDS011;18731;42.830;24.390;2024-03-29T09:05:19;5.25;;;1.20;;
32242;SDS011;18731;42.830;24.390;2024-03-29T09:07:45;5.47;;;1.00;;
32242;SDS011;18731;42.830;24.390;2024-03-29T09:10:11;5.68;;;1.13;;
32242;SDS011;18731;42.830;24.390;2024-03-29T09:12:38;4.80;;;0.95;;
32242;SDS011;18731;42.830;24.390;2024-03-29T09:15:03;4.03;;;1.00;;
32242;SDS011;18731;42.830;24.390;2024-03-29T09:17:34;4.00;;;1.10;;
32242;SDS011;18731;42.830;24.390;2024-03-29T09:19:59;6.00;;;1.27;;
32242;SDS011;18731;42.830;24.390;2024-03-29T09:22:25;6.55;;;1.20;;
32242;SDS011;18731;42.830;24.390;2024-03-29T09:24:50;6.65;;;0.98;;
32242;SDS011;18731;42.830;24.390;2024-03-29T09:27:16;5.47;;;1.13;;
32242;SDS011;18731;42.830;24.390;2024-03-29T09:29:42;3.60;;;1.25;;
32242;SDS011;18731;42.830;24.390;2024-03-29T09:32:08;5.75;;;1.40;;
32242;SDS011;18731;42.830;24.390;2024-03-29T09:34:33;4.60;;;0.95;;
32242;SDS011;18731;42.830;24.390;2024-03-29T09:36:59;5.70;;;1.23;;
32242;SDS011;18731;42.830;24.390;2024-03-29T09:39:25;2.05;;;0.98;;
32242;SDS011;18731;42.830;24.390;2024-03-29T09:41:50;5.22;;;1.33;;
32242;SDS011;18731;42.830;24.390;2024-03-29T09:44:16;5.45;;;1.40;;
32242;SDS011;18731;42.830;24.390;2024-03-29T09:46:46;4.05;;;1.10;;
32242;SDS011;18731;42.830;24.390;2024-03-29T09:49:12;7.40;;;1.20;;
32242;SDS011;18731;42.830;24.390;2024-03-29T09:51:39;2.60;;;0.90;;
32242;SDS011;18731;42.830;24.390;2024-03-29T09:54:05;3.45;;;1.08;;
32242;SDS011;18731;42.830;24.390;2024-03-29T09:56:37;5.05;;;1.10;;
32242;SDS011;18731;42.830;24.390;2024-03-29T09:59:03;5.70;;;1.40;;
32242;SDS011;18731;42.830;24.390;2024-03-29T10:01:29;2.10;;;0.88;;
32242;SDS011;18731;42.830;24.390;2024-03-29T10:03:56;4.78;;;1.05;;
32242;SDS011;18731;42.830;24.390;2024-03-29T10:06:24;6.53;;;1.10;;
32242;SDS011;18731;42.830;24.390;2024-03-29T10:08:50;3.83;;;1.15;;
32242;SDS011;18731;42.830;24.390;2024-03-29T10:11:17;3.83;;;1.27;;
32242;SDS011;18731;42.830;24.390;2024-03-29T10:13:45;4.03;;;1.10;;
32242;SDS011;18731;42.830;24.390;2024-03-29T10:16:11;5.15;;;1.10;;
32242;SDS011;18731;42.830;24.390;2024-03-29T10:18:37;5.45;;;1.35;;
32242;SDS011;18731;42.830;24.390;2024-03-29T10:21:06;2.78;;;0.80;;
32242;SDS011;18731;42.830;24.390;2024-03-29T10:23:32;4.22;;;1.27;;
32242;SDS011;18731;42.830;24.390;2024-03-29T10:25:59;4.40;;;1.35;;
32242;SDS011;18731;42.830;24.390;2024-03-29T10:28:27;3.92;;;1.20;;
32242;SDS011;18731;42.830;24.390;2024-03-29T10:30:56;10.23;;;1.75;;
32242;SDS011;18731;42.830;24.390;2024-03-29T10:33:22;4.45;;;0.98;;
32242;SDS011;18731;42.830;24.390;2024-03-29T10:35:47;2.55;;;1.30;;
32242;SDS011;18731;42.830;24.390;2024-03-29T10:38:13;3.47;;;0.90;;
32242;SDS011;18731;42.830;24.390;2024-03-29T10:40:39;4.43;;;1.00;;
32242;SDS011;18731;42.830;24.390;2024-03-29T10:43:09;4.32;;;1.02;;
32242;SDS011;18731;42.830;24.390;2024-03-29T10:45:39;4.05;;;1.10;;
32242;SDS011;18731;42.830;24.390;2024-03-29T10:48:05;5.03;;;1.58;;
32242;SDS011;18731;42.830;24.390;2024-03-29T10:50:35;6.45;;;1.40;;
32242;SDS011;18731;42.830;24.390;2024-03-29T10:53:01;4.53;;;0.93;;
32242;SDS011;18731;42.830;24.390;2024-03-29T10:55:30;6.07;;;1.30;;
32242;SDS011;18731;42.830;24.390;2024-03-29T10:57:58;3.00;;;1.05;;
32242;SDS011;18731;42.830;24.390;2024-03-29T11:00:25;5.28;;;1.20;;
32242;SDS011;18731;42.830;24.390;2024-03-29T11:05:48;6.20;;;1.30;;
32242;SDS011;18731;42.830;24.390;2024-03-29T11:08:24;4.63;;;1.15;;
32242;SDS011;18731;42.830;24.390;2024-03-29T11:10:53;4.22;;;0.93;;
32242;SDS011;18731;42.830;24.390;2024-03-29T11:13:37;4.50;;;1.02;;
32242;SDS011;18731;42.830;24.390;2024-03-29T11:16:27;3.58;;;1.05;;
32242;SDS011;18731;42.830;24.390;2024-03-29T11:18:52;4.63;;;1.20;;
32242;SDS011;18731;42.830;24.390;2024-03-29T11:21:19;3.72;;;0.93;;
32242;SDS011;18731;42.830;24.390;2024-03-29T11:23:48;3.25;;;1.10;;
32242;SDS011;18731;42.830;24.390;2024-03-29T11:26:14;4.20;;;1.00;;
32242;SDS011;18731;42.830;24.390;2024-03-29T11:28:41;5.03;;;1.30;;
32242;SDS011;18731;42.830;24.390;2024-03-29T11:31:14;3.78;;;1.00;;
32242;SDS011;18731;42.830;24.390;2024-03-29T11:38:47;3.85;;;1.10;;
32242;SDS011;18731;42.830;24.390;2024-03-29T11:41:15;5.25;;;0.95;;
32242;SDS011;18731;42.830;24.390;2024-03-29T11:43:43;3.35;;;1.10;;
32242;SDS011;18731;42.830;24.390;2024-03-29T11:46:09;2.58;;;1.10;;
32242;SDS011;18731;42.830;24.390;2024-03-29T11:48:36;1.65;;;0.90;;
32242;SDS011;18731;42.830;24.390;2024-03-29T11:51:03;4.15;;;1.00;;
32242;SDS011;18731;42.830;24.390;2024-03-29T11:53:29;3.78;;;1.13;;
32242;SDS011;18731;42.830;24.390;2024-03-29T11:56:00;2.67;;;1.00;;
32242;SDS011;18731;42.830;24.390;2024-03-29T11:58:27;5.10;;;1.05;;
32242;SDS011;18731;42.830;24.390;2024-03-29T12:00:54;4.95;;;1.30;;
32242;SDS011;18731;42.830;24.390;2024-03-29T12:03:22;6.65;;;1.13;;
32242;SDS011;18731;42.830;24.390;2024-03-29T12:05:50;3.75;;;1.27;;
32242;SDS011;18731;42.830;24.390;2024-03-29T12:08:19;1.90;;;0.88;;
32242;SDS011;18731;42.830;24.390;2024-03-29T12:10:45;2.90;;;1.08;;
32242;SDS011;18731;42.830;24.390;2024-03-29T12:13:11;3.50;;;0.98;;
32242;SDS011;18731;42.830;24.390;2024-03-29T12:15:37;3.70;;;1.00;;
32242;SDS011;18731;42.830;24.390;2024-03-29T12:18:03;8.40;;;1.30;;
32242;SDS011;18731;42.830;24.390;2024-03-29T12:20:33;2.67;;;1.08;;
32242;SDS011;18731;42.830;24.390;2024-03-29T12:23:04;3.58;;;1.33;;
32242;SDS011;18731;42.830;24.390;2024-03-29T12:25:40;3.78;;;1.30;;
32242;SDS011;18731;42.830;24.390;2024-03-29T12:28:05;4.28;;;1.20;;
32242;SDS011;18731;42.830;24.390;2024-03-29T12:30:32;4.60;;;1.08;;
32242;SDS011;18731;42.830;24.390;2024-03-29T12:35:51;7.90;;;1.33;;
32242;SDS011;18731;42.830;24.390;2024-03-29T12:38:19;2.40;;;1.08;;
32242;SDS011;18731;42.830;24.390;2024-03-29T12:40:46;7.82;;;1.33;;
32242;SDS011;18731;42.830;24.390;2024-03-29T12:43:13;3.65;;;1.13;;
32242;SDS011;18731;42.830;24.390;2024-03-29T12:45:42;5.63;;;1.33;;
32242;SDS011;18731;42.830;24.390;2024-03-29T12:48:11;4.93;;;1.20;;
32242;SDS011;18731;42.830;24.390;2024-03-29T12:50:41;3.38;;;1.10;;
32242;SDS011;18731;42.830;24.390;2024-03-29T12:53:09;7.97;;;1.73;;
32242;SDS011;18731;42.830;24.390;2024-03-29T12:55:47;8.82;;;1.10;;
32242;SDS011;18731;42.830;24.390;2024-03-29T12:58:14;3.08;;;1.25;;
32242;SDS011;18731;42.830;24.390;2024-03-29T13:00:41;4.90;;;1.95;;
32242;SDS011;18731;42.830;24.390;2024-03-29T13:03:07;6.95;;;2.92;;
32242;SDS011;18731;42.830;24.390;2024-03-29T13:05:37;5.43;;;1.85;;
32242;SDS011;18731;42.830;24.390;2024-03-29T13:08:07;7.88;;;1.48;;
32242;SDS011;18731;42.830;24.390;2024-03-29T13:10:37;4.47;;;1.15;;
32242;SDS011;18731;42.830;24.390;2024-03-29T13:13:04;4.63;;;1.20;;
32242;SDS011;18731;42.830;24.390;2024-03-29T13:15:32;4.10;;;1.02;;
32242;SDS011;18731;42.830;24.390;2024-03-29T13:17:59;3.35;;;1.10;;
32242;SDS011;18731;42.830;24.390;2024-03-29T13:20:25;7.15;;;1.48;;
32242;SDS011;18731;42.830;24.390;2024-03-29T13:22:51;7.57;;;1.10;;
32242;SDS011;18731;42.830;24.390;2024-03-29T13:25:19;5.07;;;1.50;;
32242;SDS011;18731;42.830;24.390;2024-03-29T13:27:46;5.57;;;1.48;;
32242;SDS011;18731;42.830;24.390;2024-03-29T13:30:14;9.20;;;1.85;;
32242;SDS011;18731;42.830;24.390;2024-03-29T13:32:41;5.45;;;1.42;;
32242;SDS011;18731;42.830;24.390;2024-03-29T13:35:09;5.13;;;1.50;;
32242;SDS011;18731;42.830;24.390;2024-03-29T13:37:39;2.67;;;1.20;;
32242;SDS011;18731;42.830;24.390;2024-03-29T13:40:08;6.20;;;1.73;;
32242;SDS011;18731;42.830;24.390;2024-03-29T13:42:34;6.85;;;2.33;;
32242;SDS011;18731;42.830;24.390;2024-03-29T13:45:02;9.80;;;1.60;;
32242;SDS011;18731;42.830;24.390;2024-03-29T13:47:31;5.90;;;1.50;;
32242;SDS011;18731;42.830;24.390;2024-03-29T13:49:59;7.20;;;1.75;;
32242;SDS011;18731;42.830;24.390;2024-03-29T13:52:25;5.57;;;1.77;;
32242;SDS011;18731;42.830;24.390;2024-03-29T13:54:54;5.82;;;2.58;;
32242;SDS011;18731;42.830;24.390;2024-03-29T13:57:20;5.43;;;2.20;;
32242;SDS011;18731;42.830;24.390;2024-03-29T13:59:46;7.03;;;2.70;;
32242;SDS011;18731;42.830;24.390;2024-03-29T14:02:18;6.30;;;2.38;;
32242;SDS011;18731;42.830;24.390;2024-03-29T14:04:45;8.93;;;2.70;;
32242;SDS011;18731;42.830;24.390;2024-03-29T14:07:13;6.70;;;2.78;;
32242;SDS011;18731;42.830;24.390;2024-03-29T14:09:40;6.28;;;2.78;;
32242;SDS011;18731;42.830;24.390;2024-03-29T14:12:07;9.38;;;3.13;;
32242;SDS011;18731;42.830;24.390;2024-03-29T14:14:33;7.57;;;3.20;;
32242;SDS011;18731;42.830;24.390;2024-03-29T14:16:59;9.25;;;3.40;;
32242;SDS011;18731;42.830;24.390;2024-03-29T14:19:29;13.50;;;3.40;;
32242;SDS011;18731;42.830;24.390;2024-03-29T14:21:56;6.57;;;3.17;;
32242;SDS011;18731;42.830;24.390;2024-03-29T14:24:22;8.95;;;3.55;;
32242;SDS011;18731;42.830;24.390;2024-03-29T14:26:50;5.65;;;3.03;;
32242;SDS011;18731;42.830;24.390;2024-03-29T14:29:17;8.02;;;3.15;;
32242;SDS011;18731;42.830;24.390;2024-03-29T14:31:46;7.50;;;3.30;;
32242;SDS011;18731;42.830;24.390;2024-03-29T14:34:12;6.80;;;2.53;;
32242;SDS011;18731;42.830;24.390;2024-03-29T14:36:37;6.40;;;2.90;;
32242;SDS011;18731;42.830;24.390;2024-03-29T14:39:03;6.15;;;2.72;;
32242;SDS011;18731;42.830;24.390;2024-03-29T14:41:28;6.97;;;2.97;;
32242;SDS011;18731;42.830;24.390;2024-03-29T14:43:54;8.10;;;3.00;;